KLTS/LTS METAR and TAF weather

Enter ICAO airport designator
Station Type Date Time Source
KLTS METAR 2022/12/04 03:55 UTC NOAA

KLTS 040355Z AUTO 05004KT 10SM BKN150 OVC180 04/M05 A3041 RMK AO2 SLP305 T00421050 $


Station Type Date Time Source
KLTS Decoded METAR 2022/12/04 03:55 UTC NOAA

Altus Air Force Base, OK, United States (KLTS) 34-39N 099-16W 420M
Dec 03, 2022 - 10:55 PM EST / 2022.12.04 0355 UTC
Wind: from the NE (050 degrees) at 5 MPH (4 KT):0
Visibility: 10 mile(s):0
Sky conditions: overcast
Temperature: 39.6 F (4.2 C)
Dew Point: 23.0 F (-5.0 C)
Relative Humidity: 51%
Pressure (altimeter): 30.41 in. Hg (1029 hPa)
ob: KLTS 040355Z AUTO 05004KT 10SM BKN150 OVC180 04/M05 A3041 RMK AO2 SLP305 T00421050
cycle: 4

Station Type Date Time Source
KLTS TAF 2022/12/03 06:50 UTC NOAA

TAF
AMD KLTS 030630Z 0306/0407 02018G35KT 9999 SCT230 520003 QNH3006INS
TEMPO 0306/0311 03025G45KT
BECMG 0312/0313 02010G15KT 9999 SKC 510053 QNH3043INS
BECMG 0321/0322 VRB06KT 9999 SKC QNH3049INS
BECMG 0402/0403 VRB06KT 6000 SHRA FEW035 SCT050 OVC080 QNH3036INS TX09/0306Z TN03/0313Z LAST NO
AMDS AFT 0306 NEXT 0509

Example: see airport list